Terminal Aerodrome Forecast
Issued by NWS

Home | Current Version | Previous Version | Graphics & Text | Print | Product List | Glossary On
Versions: 1 2 3 4 5 6 7 8 9 10 11 12 13 14 15 16 17 18 19 20 21
000
FTUS43 KABR 250500 CCA
TAFMBG
TAF COR
KMBG 250536Z 2506/2606 06017KT P6SM SKC
     FM250800 07014KT P6SM OVC015
     FM252000 10010KT P6SM SCT020=

USA.gov is the U.S. government's official web portal to all federal, state and local government web resources and services.